Time;durP1;ratioP1;P1;durP2;ratioP2;P2;SDS_P1;SDS_P2;PMS_P1;PMS_P2;Temp;Humidity;BMP_temperature;BMP_pressure;BME280_temperature;BME280_humidity;BME280_pressure;Samples;Min_cycle;Max_cycle;Signal;HPM_P1;HPM_P2
2022/04/30 00:02:14;;;;;;;11.80;6.68;;;;;;;9.63;66.12;101239.12;18427036;32;20115;-63
2022/04/30 00:12:18;;;;;;;15.27;7.28;;;;;;;9.33;68.39;101249.94;18428085;32;20137;-63
2022/04/30 00:22:22;;;;;;;12.32;6.32;;;;;;;9.27;68.59;101248.97;18428135;32;20112;-63
2022/04/30 00:32:26;;;;;;;13.25;6.53;;;;;;;9.62;68.80;101244.31;18426936;32;20097;-63
2022/04/30 00:42:30;;;;;;;12.48;5.87;;;;;;;9.67;69.11;101248.75;18411769;32;20089;-63
2022/04/30 00:52:35;;;;;;;11.68;6.05;;;;;;;9.38;69.12;101236.13;18432805;32;20111;-63
2022/04/30 01:02:39;;;;;;;12.95;6.78;;;;;;;9.88;67.57;101247.31;18435922;32;20097;-63
2022/04/30 01:12:43;;;;;;;12.60;5.93;;;;;;;9.59;68.49;101247.75;18435745;32;20138;-63
2022/04/30 01:23:09;;;;;;;11.65;5.68;;;;;;;9.64;68.11;101240.87;18434808;32;20101;-63
2022/04/30 01:43:35;;;;;;;10.98;5.97;;;;;;;9.27;67.48;101235.94;18434034;32;20131;-63
2022/04/30 01:53:40;;;;;;;9.55;5.55;;;;;;;8.87;68.11;101237.88;18419895;32;20163;-63
2022/04/30 02:03:45;;;;;;;12.23;5.07;;;;;;;8.67;68.29;101233.16;18433409;32;20085;-63
2022/04/30 02:13:53;;;;;;;11.15;5.68;;;;;;;8.81;67.94;101223.00;18433443;32;20503;-63
2022/04/30 02:23:58;;;;;;;11.50;4.70;;;;;;;8.34;69.50;101221.19;18433134;32;20089;-63
2022/04/30 02:34:01;;;;;;;10.18;4.95;;;;;;;8.10;69.92;101206.84;18432850;32;20097;-63
2022/04/30 02:44:06;;;;;;;8.93;4.75;;;;;;;8.46;68.27;101204.97;18432612;32;20373;-63
2022/04/30 02:54:09;;;;;;;10.77;5.03;;;;;;;8.38;69.00;101199.63;18432202;32;20107;-63
2022/04/30 03:04:14;;;;;;;8.68;4.53;;;;;;;8.51;66.48;101197.28;18431208;32;20116;-63
2022/04/30 03:14:17;;;;;;;9.82;5.05;;;;;;;7.97;69.28;101190.13;18430685;32;20139;-63
2022/04/30 03:24:21;;;;;;;11.63;4.50;;;;;;;7.99;68.78;101192.75;18430913;32;20111;-63
2022/04/30 03:34:28;;;;;;;8.85;4.28;;;;;;;7.76;68.45;101190.53;18430161;32;20145;-63
2022/04/30 03:44:32;;;;;;;10.40;5.15;;;;;;;7.60;69.47;101195.41;18429807;32;20109;-63
2022/04/30 03:54:35;;;;;;;9.30;4.55;;;;;;;7.57;69.25;101184.91;18429323;32;20112;-63
2022/04/30 04:04:40;;;;;;;10.75;4.75;;;;;;;7.67;69.37;101193.81;18428534;32;20105;-63
2022/04/30 04:35:28;;;;;;;10.48;4.80;;;;;;;9.40;66.25;101195.34;18436141;32;20081;-63
2022/04/30 04:45:33;;;;;;;13.93;5.15;;;;;;;9.68;65.70;101200.97;18435739;32;20160;-63
2022/04/30 04:55:36;;;;;;;11.93;4.30;;;;;;;10.62;63.37;101203.03;18435522;32;20084;-63
2022/04/30 05:05:41;;;;;;;7.87;4.15;;;;;;;10.98;62.41;101198.12;18435144;32;20369;-63
2022/04/30 05:15:44;;;;;;;8.68;4.35;;;;;;;11.29;62.26;101201.00;18434980;32;20382;-63
2022/04/30 05:25:48;;;;;;;9.93;4.95;;;;;;;12.41;60.05;101205.97;18434533;32;20095;-63
2022/04/30 05:35:52;;;;;;;9.23;5.20;;;;;;;12.69;58.67;101203.44;18433928;32;20372;-64
2022/04/30 05:45:56;;;;;;;9.18;4.57;;;;;;;13.79;56.53;101200.78;18434097;32;20365;-64
2022/04/30 05:56:00;;;;;;;10.77;4.25;;;;;;;14.39;53.97;101193.56;18433846;32;20097;-64
2022/04/30 06:06:05;;;;;;;9.00;4.50;;;;;;;14.96;53.63;101208.12;18433276;32;20092;-64
2022/04/30 06:16:08;;;;;;;9.43;4.40;;;;;;;15.99;50.49;101194.91;18433259;32;20103;-64
2022/04/30 06:26:13;;;;;;;9.82;4.85;;;;;;;15.82;50.30;101202.94;18432992;32;20093;-64
2022/04/30 06:36:16;;;;;;;10.57;4.32;;;;;;;17.52;45.01;101190.84;18433679;32;20127;-64
2022/04/30 06:46:21;;;;;;;8.00;4.50;;;;;;;17.43;49.92;101205.09;18431555;32;20119;-65
2022/04/30 07:06:46;;;;;;;7.80;3.70;;;;;;;19.53;43.24;101184.56;18430905;32;20116;-65
2022/04/30 07:16:50;;;;;;;6.55;3.25;;;;;;;23.36;30.62;101171.34;18431497;32;20115;-65
2022/04/30 07:26:54;;;;;;;5.78;3.20;;;;;;;25.67;26.28;101154.97;18430930;32;20164;-65
2022/04/30 07:37:00;;;;;;;6.03;3.08;;;;;;;26.80;25.80;101156.72;18430692;32;20088;-65
2022/04/30 07:47:05;;;;;;;8.13;3.50;;;;;;;25.21;26.65;101148.41;18429842;32;20128;-66
2022/04/30 07:57:09;;;;;;;7.50;3.10;;;;;;;24.25;28.48;101138.87;18431897;32;20483;-65
2022/04/30 08:07:13;;;;;;;6.70;3.50;;;;;;;23.91;28.79;101142.25;18436865;32;20374;-65
2022/04/30 08:17:16;;;;;;;6.00;2.80;;;;;;;22.26;30.19;101147.41;18436992;32;20097;-66
2022/04/30 08:27:22;;;;;;;6.22;2.75;;;;;;;23.10;30.08;101133.34;18436953;32;20154;-65
2022/04/30 08:37:26;;;;;;;4.90;2.72;;;;;;;22.97;29.86;101132.16;18436229;32;20085;-65
2022/04/30 08:47:36;;;;;;;5.62;2.37;;;;;;;21.96;29.52;101145.00;18435295;32;20107;-65
2022/04/30 08:57:39;;;;;;;4.50;2.20;;;;;;;21.95;29.02;101135.31;18436622;32;20085;-65
2022/04/30 09:07:53;;;;;;;5.15;2.30;;;;;;;23.03;29.62;101123.91;18434321;32;20394;-65
2022/04/30 09:17:57;;;;;;;4.78;2.35;;;;;;;22.85;27.05;101113.09;18420687;32;20108;-65
2022/04/30 09:28:01;;;;;;;6.12;2.40;;;;;;;23.18;27.87;101093.06;18434662;32;20468;-65
2022/04/30 09:38:05;;;;;;;6.25;2.50;;;;;;;23.38;27.96;101083.34;18435468;32;20228;-65
2022/04/30 09:58:28;;;;;;;5.75;2.42;;;;;;;22.19;29.90;101074.09;18433266;32;20088;-65
2022/04/30 10:08:34;;;;;;;4.03;2.15;;;;;;;23.35;29.17;101052.41;18433268;32;20100;-65
2022/04/30 10:18:42;;;;;;;3.97;1.90;;;;;;;23.05;27.71;101039.53;18433120;32;20153;-65
2022/04/30 10:28:46;;;;;;;5.57;2.45;;;;;;;22.60;23.70;101030.78;18432761;32;20089;-65
2022/04/30 10:38:59;;;;;;;4.53;2.35;;;;;;;22.42;26.27;101024.44;18432767;32;20112;-65
2022/04/30 10:49:04;;;;;;;3.65;1.75;;;;;;;23.12;27.49;101016.97;18432356;32;20088;-65
2022/04/30 10:59:08;;;;;;;3.53;1.90;;;;;;;23.36;24.33;101015.97;18431854;32;20124;-66
2022/04/30 11:09:12;;;;;;;5.30;2.20;;;;;;;22.81;24.86;101007.72;18431875;32;20477;-65
2022/04/30 11:19:17;;;;;;;5.45;2.35;;;;;;;23.66;23.12;100995.00;18417140;32;20093;-65
2022/04/30 11:29:22;;;;;;;4.15;1.83;;;;;;;22.65;24.53;101001.31;18430624;32;20116;-65
2022/04/30 11:39:27;;;;;;;5.28;2.35;;;;;;;23.31;24.22;100981.56;18430780;32;20123;-65
2022/04/30 11:49:32;;;;;;;4.62;2.10;;;;;;;22.42;23.42;100981.88;18429764;32;20116;-65
2022/04/30 11:59:42;;;;;;;4.07;2.12;;;;;;;22.81;23.20;100967.78;18429136;32;20089;-65
2022/04/30 12:09:50;;;;;;;4.15;2.00;;;;;;;22.73;23.87;100956.63;18414891;32;20745;-65
2022/04/30 12:30:23;;;;;;;5.05;1.98;;;;;;;23.31;22.36;100922.09;18427232;32;20167;-65
2022/04/30 12:40:27;;;;;;;4.20;2.22;;;;;;;23.07;23.18;100923.16;18426621;32;20350;-65
2022/04/30 12:50:32;;;;;;;6.82;2.28;;;;;;;23.36;24.48;100910.28;18434870;32;20450;-65
2022/04/30 13:00:36;;;;;;;4.80;2.08;;;;;;;23.52;22.44;100914.84;18434655;32;20115;-65
2022/04/30 13:21:02;;;;;;;4.82;2.15;;;;;;;24.19;22.92;100888.47;18434842;32;20089;-65
2022/04/30 13:31:06;;;;;;;5.97;2.00;;;;;;;22.54;23.85;100885.59;18434473;32;20154;-65
2022/04/30 13:41:11;;;;;;;5.72;2.00;;;;;;;22.76;24.20;100881.13;18434317;32;20396;-65
2022/04/30 13:51:15;;;;;;;4.03;2.03;;;;;;;23.23;22.16;100866.50;18433654;32;20093;-65
2022/04/30 14:01:19;;;;;;;2.45;1.60;;;;;;;22.99;23.11;100856.94;18433207;32;20097;-65
2022/04/30 14:11:23;;;;;;;4.72;1.90;;;;;;;23.11;23.49;100852.00;18434350;32;20148;-65
2022/04/30 14:21:26;;;;;;;5.57;2.05;;;;;;;23.92;25.23;100835.59;18434162;32;20093;-65
2022/04/30 14:31:36;;;;;;;3.10;1.75;;;;;;;23.44;21.38;100831.81;18433145;32;20110;-65
2022/04/30 14:41:40;;;;;;;3.97;2.00;;;;;;;22.97;23.68;100834.00;18432771;32;20148;-65
2022/04/30 14:51:44;;;;;;;4.35;1.80;;;;;;;23.33;23.34;100829.66;18432564;32;20119;-65
2022/04/30 15:01:54;;;;;;;7.00;2.60;;;;;;;23.97;23.29;100824.69;18417806;32;20073;-65
2022/04/30 15:11:59;;;;;;;6.78;2.30;;;;;;;23.51;23.46;100817.22;18417293;32;20097;-65
2022/04/30 15:22:02;;;;;;;5.43;2.17;;;;;;;23.36;22.99;100813.53;18431360;32;20183;-65
2022/04/30 15:32:08;;;;;;;6.12;2.15;;;;;;;22.83;24.90;100811.56;18430603;32;20483;-65
2022/04/30 15:42:12;;;;;;;5.12;2.20;;;;;;;22.75;25.32;100808.38;18430362;32;20145;-65
2022/04/30 15:52:17;;;;;;;5.37;1.90;;;;;;;22.95;23.93;100799.47;18429364;32;20437;-65
2022/04/30 16:02:22;;;;;;;10.38;2.33;;;;;;;22.75;25.45;100795.09;18427770;32;72285;-65
2022/04/30 16:12:28;;;;;;;3.35;1.87;;;;;;;22.61;25.75;100784.25;18428458;32;20101;-64
2022/04/30 16:22:31;;;;;;;3.42;1.80;;;;;;;22.29;25.64;100784.75;18434505;32;20107;-64
2022/04/30 16:32:36;;;;;;;4.80;2.10;;;;;;;22.11;25.60;100783.81;18436436;32;20085;-65
2022/04/30 16:42:39;;;;;;;3.60;1.73;;;;;;;21.94;26.04;100785.41;18436914;32;20109;-64
2022/04/30 16:52:43;;;;;;;4.05;1.73;;;;;;;21.81;25.96;100784.19;18435968;32;20093;-65
2022/04/30 17:02:49;;;;;;;5.25;1.87;;;;;;;21.64;26.27;100783.13;18435718;32;20449;-64
2022/04/30 17:12:55;;;;;;;3.97;2.00;;;;;;;21.55;26.61;100776.37;18434888;32;20354;-64
2022/04/30 17:22:59;;;;;;;3.62;1.73;;;;;;;21.19;28.66;100776.97;18435068;32;20494;-65
2022/04/30 17:43:28;;;;;;;6.05;2.47;;;;;;;20.20;32.53;100781.59;18434514;32;20102;-64
2022/04/30 17:53:33;;;;;;;4.47;2.62;;;;;;;19.59;35.41;100794.31;18434204;32;20137;-64
2022/04/30 18:03:36;;;;;;;7.12;3.60;;;;;;;18.84;38.38;100795.75;18420404;32;20088;-64
2022/04/30 18:13:42;;;;;;;8.95;4.47;;;;;;;18.02;41.69;100804.19;18420193;32;20355;-64
2022/04/30 18:23:45;;;;;;;15.27;6.68;;;;;;;17.61;43.27;100815.78;18433201;32;20112;-64
2022/04/30 18:33:50;;;;;;;16.40;8.43;;;;;;;16.97;45.68;100829.56;18418656;32;20111;-64
2022/04/30 18:43:56;;;;;;;23.23;11.45;;;;;;;16.22;49.12;100849.53;18417283;32;20096;-64
2022/04/30 19:04:21;;;;;;;19.50;8.70;;;;;;;15.52;50.97;100860.31;18432754;32;20104;-64
2022/04/30 19:14:26;;;;;;;16.08;7.50;;;;;;;15.19;52.72;100884.47;18432617;32;20743;-64
2022/04/30 19:24:30;;;;;;;16.05;7.60;;;;;;;14.55;55.26;100886.94;18416887;32;20115;-63
2022/04/30 19:34:35;;;;;;;14.52;6.70;;;;;;;14.14;56.54;100881.25;18416575;32;20099;-63
2022/04/30 19:44:40;;;;;;;14.80;7.43;;;;;;;13.93;56.12;100880.53;18430097;32;20149;-63
2022/04/30 19:54:45;;;;;;;18.20;9.93;;;;;;;13.53;57.20;100893.97;18418827;32;20150;-63
2022/04/30 20:04:48;;;;;;;16.80;9.23;;;;;;;13.37;57.96;100898.41;18422585;32;20097;-63
2022/04/30 20:25:16;;;;;;;26.87;13.77;;;;;;;12.92;60.04;100909.13;18422778;32;20500;-63
2022/04/30 20:45:50;;;;;;;20.15;9.98;;;;;;;13.06;59.24;100906.44;18421041;32;20369;-63
2022/04/30 20:55:55;;;;;;;17.75;9.02;;;;;;;12.80;60.70;100910.88;18422634;32;20425;-63
2022/04/30 21:05:59;;;;;;;15.55;8.13;;;;;;;12.83;60.74;100918.75;18434887;32;20118;-63
2022/04/30 21:16:04;;;;;;;19.20;9.45;;;;;;;12.67;60.97;100906.56;18420923;32;20089;-63
2022/04/30 21:26:08;;;;;;;26.45;13.20;;;;;;;12.12;62.75;100908.41;18435168;32;20119;-63
2022/04/30 21:36:13;;;;;;;24.50;11.18;;;;;;;12.48;61.05;100911.84;18434221;32;20109;-63
2022/04/30 21:46:16;;;;;;;18.08;9.60;;;;;;;12.24;61.82;100916.25;18434256;32;20110;-63
2022/04/30 22:06:41;;;;;;;;;;;;;;;11.89;63.36;100901.41;18434804;32;20088;-63
2022/04/30 22:16:46;;;;;;;16.98;7.72;;;;;;;11.79;63.98;100900.50;18433113;32;19984;-63
2022/04/30 22:26:52;;;;;;;16.42;8.27;;;;;;;11.70;63.47;100908.34;18433114;32;20120;-63
2022/04/30 22:36:57;;;;;;;21.52;8.40;;;;;;;11.48;63.96;100906.59;18418669;32;20089;-64
2022/04/30 22:47:00;;;;;;;14.63;7.45;;;;;;;11.77;62.40;100900.53;18432567;32;20101;-63
2022/04/30 22:57:06;;;;;;;14.20;8.15;;;;;;;11.29;64.53;100904.78;18432314;32;20137;-63
2022/04/30 23:07:09;;;;;;;14.85;7.68;;;;;;;11.24;63.69;100900.41;18431913;32;20116;-63
2022/04/30 23:17:13;;;;;;;15.20;6.72;;;;;;;11.30;63.89;100891.72;18431462;32;20111;-63
2022/04/30 23:27:17;;;;;;;11.90;7.22;;;;;;;11.28;65.12;100897.78;18430377;32;20092;-63
2022/04/30 23:37:21;;;;;;;15.02;7.90;;;;;;;11.24;65.53;100894.31;18430642;32;20114;-63
2022/04/30 23:47:25;;;;;;;13.50;7.90;;;;;;;11.52;65.34;100891.75;18430161;32;20096;-63
2022/04/30 23:57:29;;;;;;;12.88;7.00;;;;;;;11.54;65.49;100895.25;18428930;32;20215;-63
